KAIA/AIA METAR and TAF weather

Enter ICAO airport designator
Station Type Date Time Source
KAIA METAR 2018/01/22 19:53 UTC NOAA

KAIA 221953Z AUTO 31013KT 10SM CLR M02/M08 A2994 RMK AO2 SLP169 T10171083


Station Type Date Time Source
KAIA Decoded METAR 2018/01/22 19:53 UTC NOAA

ALLIANCE MUNICIPAL AIRPORT, NE, United States (KAIA) 42-03N 102-48W 1196M
Jan 22, 2018 - 02:53 PM EST / 2018.01.22 1953 UTC
Wind: from the NW (310 degrees) at 15 MPH (13 KT):0
Visibility: 10 mile(s):0
Sky conditions: clear
Temperature: 28.9 F (-1.7 C)
Windchill: 17 F (-8 C):1
Dew Point: 17.1 F (-8.3 C)
Relative Humidity: 60%
Pressure (altimeter): 29.94 in. Hg (1013 hPa)
ob: KAIA 221953Z AUTO 31013KT 10SM CLR M02/M08 A2994 RMK AO2 SLP169 T10171083
cycle: 20

Station Type Date Time Source
KAIA TAF 2018/01/22 18:45 UTC NOAA

TAF KAIA 221743Z 2218/2318 32010KT P6SM SKC


Example: see airport list